logo
Rechercher aéroport 
image banner adimage banner adimage banner ad
image banner ad

FQBR - Beira / International

Situé à Beira, Mozambique

ICAO - FQBR, IATA - BEW

Données fournies par Airmate  

Information générale

Coordonnées: S19°47'45" E34°54'17"
Élévation : 36 feet MSL.
 
Voir autres Aéroports à Sofala Province

Données opérationnelles

Special qualification required
Heure actuelle UTC:
Heure actuelle locale:
Météo
METAR: FQBR 232000Z 12005KT CAVOK 20/19 Q1022
TAF: TAF FQBR 231600Z 2318/2424 12006KT 9999 FEW020 TX28/2413Z TN17/2402Z BECMG 2401/2403 34005KT BECMG 2412/2414 07008KT
Voir NOTAMs / SUP AIP / TFR affectant cet aéroport [VIEW]
Fréquences de communication: [VIEW]

Pistes:

Identifiant RWYQFULongueur (ft)Largeur (ft)SurfaceLDA (ft)
12104°7874148ASP
30284°7874148ASP
17160°5660148ASP
35340°5660148ASP

Coordonnées de l'aéroport

Adresse: Beira Mozambique

Vue satellite de FQBR